Main page
METAR-TAF:

METAR-TAF

Airports :

Honningsvåg Airport. Valan

Honningsvåg, Norway

latitude: 71-01N, longitude: 025-59E, elevation: 1 m

Current weather observation

The report was made 36 minutes ago, at 21:20 UTC
Wind 22 kt from the Northwest
Temperature 2°C
Humidity 75%
Pressure 963 hPa
Visibility 10 km or more
Broken clouds at a height of 2300 ft

METAR: ENHV 172120Z 32022KT 9999 BKN023 02/M02 Q0963

Time: 22:56 (21:56 UTC)


TAF: missing

Weather observations and forecasts of more than 4000 airports (METAR and TAF reports).

The available stations are represented by yellow and red dots on the map.

Hover mouse over dot to see the name of the station.

Then click to see weather observations and forecasts.

To change the map : click on the green buttons with a black cross to zoom in, on the green button with a dash to zoom out, or on the green arrows for adjacent maps.


METAR-TAF: